Time;durP1;ratioP1;P1;durP2;ratioP2;P2;SDS_P1;SDS_P2;PMS_P1;PMS_P2;Temp;Humidity;BMP_temperature;BMP_pressure;BME280_temperature;BME280_humidity;BME280_pressure;Samples;Min_cycle;Max_cycle;Signal;HPM_P1;HPM_P2
2022/06/01 00:02:31;;;;;;;;;;;;;;;;;;;;;
2022/06/01 00:06:17;;;;;;;;;;;;;;;;;;;;;
2022/06/01 00:09:58;;;;;;;;;;;;;;;;;;;;;
2022/06/01 00:12:58;;;;;;;13.50;11.20;;;;;;;14.87;60.08;100078.38;108460;1280;22063;-80
2022/06/01 00:16:17;;;;;;;;;;;;;;;;;;;;;
2022/06/01 00:19:54;;;;;;;17.30;11.60;;;;;;;14.90;60.11;100073.80;107320;1292;22014;-80
2022/06/01 00:23:02;;;;;;;;;;;;;;;;;;;;;
2022/06/01 00:26:11;;;;;;;12.00;9.30;;;;;;;14.90;60.51;100074.81;107328;1291;22083;-80
2022/06/01 00:29:31;;;;;;;11.80;8.60;;;;;;;14.90;60.76;100092.04;107249;1292;21994;-80
2022/06/01 00:32:38;;;;;;;11.40;10.20;;;;;;;14.81;60.94;100119.56;107700;1289;22310;-80
2022/06/01 00:39:47;;;;;;;12.10;9.10;;;;;;;14.79;61.58;100139.23;107655;1286;21999;-80
2022/06/01 00:42:45;;;;;;;10.50;7.80;;;;;;;14.86;61.61;100130.98;107407;1292;23101;-79
2022/06/01 00:46:32;;;;;;;10.60;8.80;;;;;;;14.90;61.43;100131.08;107645;1289;22123;-80
2022/06/01 00:49:51;;;;;;;;;;;;;;;;;;;;;
2022/06/01 00:53:06;;;;;;;9.60;7.80;;;;;;;14.97;61.08;100134.52;106742;1297;22011;-80
2022/06/01 00:56:53;;;;;;;;;;;;;;;;;;;;;
2022/06/01 01:00:37;;;;;;;;;;;;;;;;;;;;;
2022/06/01 01:04:41;;;;;;;;;;;;;;;;;;;;;
2022/06/01 01:08:19;;;;;;;8.20;6.60;;;;;;;14.93;60.75;100124.25;106384;1301;22410;-81
2022/06/01 01:11:14;;;;;;;;;;;;;;;;;;;;;
2022/06/01 01:14:55;;;;;;;9.00;7.00;;;;;;;15.08;60.34;100119.61;107523;1290;22987;-80
2022/06/01 01:18:34;;;;;;;12.10;7.40;;;;;;;15.15;60.12;100120.45;107139;1294;22083;-81
2022/06/01 01:22:43;;;;;;;;;;;;;;;;;;;;;
2022/06/01 01:25:52;;;;;;;6.90;4.70;;;;;;;15.17;60.00;100128.38;106664;1297;22011;-80
2022/06/01 01:29:51;;;;;;;8.70;3.90;;;;;;;15.24;59.86;100117.49;107170;1295;22028;-80
2022/06/01 01:32:51;;;;;;;6.10;3.30;;;;;;;15.32;59.88;100117.55;106882;1296;22950;-80
2022/06/01 01:39:50;;;;;;;;;;;;;;;;;;;;;
2022/06/01 01:42:45;;;;;;;4.10;2.00;;;;;;;15.42;60.08;100106.23;107923;1285;22005;-81
2022/06/01 01:49:57;;;;;;;;;;;;;;;;;;;;;
2022/06/01 01:53:03;;;;;;;4.90;1.60;;;;;;;15.43;60.14;100094.70;106283;1301;22025;-81
2022/06/01 01:59:25;;;;;;;1.90;1.30;;;;;;;15.45;60.40;100091.58;106429;1296;22082;-80
2022/06/01 02:03:19;;;;;;;2.90;1.10;;;;;;;15.41;60.58;100082.56;107303;1291;22230;-80
2022/06/01 02:06:55;;;;;;;2.50;1.30;;;;;;;15.34;60.92;100081.14;107139;1290;24407;-79
2022/06/01 02:13:13;;;;;;;1.80;1.20;;;;;;;15.19;61.60;100077.98;108152;1283;22065;-79
2022/06/01 02:16:25;;;;;;;1.90;1.40;;;;;;;15.20;61.61;100073.65;107906;1286;22006;-81
2022/06/01 02:20:11;;;;;;;3.30;1.10;;;;;;;15.20;61.70;100070.63;107844;1283;22173;-80
2022/06/01 02:23:25;;;;;;;;;;;;;;;;;;;;;
2022/06/01 02:27:07;;;;;;;;;;;;;;;;;;;;;
2022/06/01 02:31:15;;;;;;;;;;;;;;;;;;;;;
2022/06/01 02:34:54;;;;;;;3.10;2.00;;;;;;;15.04;61.61;100062.23;107067;1296;22261;-81
2022/06/01 02:38:29;;;;;;;;;;;;;;;;;;;;;
2022/06/01 02:45:49;;;;;;;3.50;1.80;;;;;;;15.15;61.23;100043.86;107215;1293;22021;-81
2022/06/01 02:49:42;;;;;;;5.40;2.00;;;;;;;15.18;60.94;100040.61;107496;1285;22016;-80
2022/06/01 02:53:39;;;;;;;;;;;;;;;;;;;;;
2022/06/01 02:57:40;;;;;;;4.70;1.80;;;;;;;15.18;60.42;100044.02;107790;1288;22979;-81
2022/06/01 03:01:38;;;;;;;;;;;;;;;;;;;;;
2022/06/01 03:05:24;;;;;;;3.10;1.40;;;;;;;15.23;59.77;100048.31;107403;1291;21999;-81
2022/06/01 03:08:16;;;;;;;;;;;;;;;;;;;;;
2022/06/01 03:11:23;;;;;;;;;;;;;;;;;;;;;
2022/06/01 03:15:40;;;;;;;;;;;;;;;;;;;;;
2022/06/01 03:19:29;;;;;;;;;;;;;;;;;;;;;
2022/06/01 03:22:45;;;;;;;;;;;;;;;;;;;;;
2022/06/01 03:25:39;;;;;;;5.20;1.70;;;;;;;15.29;60.88;100070.79;106861;1294;22096;-79
2022/06/01 03:28:20;;;;;;;3.20;1.70;;;;;;;15.25;60.98;100073.33;106527;1294;22028;-79
2022/06/01 03:31:10;;;;;;;3.50;2.00;;;;;;;15.20;61.26;100079.05;106934;1294;22007;-80
2022/06/01 03:37:27;;;;;;;3.70;2.00;;;;;;;15.11;61.85;100082.49;107347;1288;22006;-81
2022/06/01 03:40:52;;;;;;;;;;;;;;;15.10;62.07;100085.67;107593;1285;22005;-79
2022/06/01 03:47:58;;;;;;;;;;;;;;;;;;;;;
2022/06/01 03:51:47;;;;;;;2.50;1.30;;;;;;;15.13;62.56;100088.14;107941;1285;23091;-81
2022/06/01 03:55:20;;;;;;;;;;;;;;;;;;;;;
2022/06/01 03:58:56;;;;;;;;;;;;;;;;;;;;;
2022/06/01 04:02:37;;;;;;;;;;;;;;;;;;;;;
2022/06/01 04:06:25;;;;;;;2.70;1.40;;;;;;;15.25;62.59;100078.32;108442;1280;22011;-81
2022/06/01 04:10:17;;;;;;;1.70;1.20;;;;;;;15.22;62.60;100073.90;108380;1281;22989;-80
2022/06/01 04:13:35;;;;;;;1.50;1.20;;;;;;;15.24;62.68;100072.91;108408;1273;22031;-81
2022/06/01 04:16:56;;;;;;;2.50;1.50;;;;;;;15.29;62.64;100068.58;108688;1276;22735;-81
2022/06/01 04:20:07;;;;;;;2.00;1.40;;;;;;;15.35;62.80;100070.05;108767;1273;21984;-80
2022/06/01 04:24:10;;;;;;;10.50;3.20;;;;;;;15.43;62.93;100070.23;108760;1273;24163;-80
2022/06/01 04:27:53;;;;;;;2.60;1.50;;;;;;;15.56;63.18;100072.23;107914;1287;22019;-80
2022/06/01 04:31:46;;;;;;;;;;;;;;;;;;;;;
2022/06/01 04:35:05;;;;;;;2.80;1.30;;;;;;;15.80;62.83;100067.05;107413;1292;23815;-81
2022/06/01 04:38:22;;;;;;;;;;;;;;;;;;;;;
2022/06/01 04:42:07;;;;;;;;;;;;;;;;;;;;;
2022/06/01 04:45:38;;;;;;;;;;;;;;;;;;;;;
2022/06/01 04:48:42;;;;;;;3.40;1.70;;;;;;;16.56;61.85;100046.61;106292;1302;22585;-81
2022/06/01 04:52:00;;;;;;;;;;;;;;;;;;;;;
2022/06/01 04:55:25;;;;;;;4.20;1.70;;;;;;;16.89;60.97;100044.95;106565;1300;22171;-81
2022/06/01 04:58:57;;;;;;;6.70;2.10;;;;;;;17.03;60.25;100054.98;107028;1291;22011;-80
2022/06/01 05:02:45;;;;;;;;;;;;;;;;;;;;;
2022/06/01 05:06:02;;;;;;;;;;;;;;;;;;;;;
2022/06/01 05:09:20;;;;;;;9.40;2.40;;;;;;;17.37;59.50;100064.50;107914;1288;22823;-80
2022/06/01 05:12:30;;;;;;;5.50;4.60;;;;;;;17.48;58.97;100068.65;107680;1288;22042;-83
2022/06/01 05:15:24;;;;;;;;;;;;;;;;;;;;;
2022/06/01 05:18:51;;;;;;;3.50;2.10;;;;;;;17.81;58.72;100069.58;108051;1286;22046;-81
2022/06/01 05:22:14;;;;;;;3.90;1.70;;;;;;;18.00;58.65;100072.33;108139;1282;23639;-78
2022/06/01 05:25:49;;;;;;;;;;;;;;;;;;;;;
2022/06/01 05:28:54;;;;;;;3.30;2.00;;;;;;;18.42;57.97;100074.41;108638;1279;22395;-79
2022/06/01 05:32:51;;;;;;;;;;;;;;;;;;;;;
2022/06/01 05:36:47;;;;;;;4.40;2.00;;;;;;;18.66;57.27;100087.34;107944;1288;22397;-80
2022/06/01 05:40:30;;;;;;;;;;;;;;;;;;;;;
2022/06/01 05:43:49;;;;;;;;;;;;;;;;;;;;;
2022/06/01 05:46:43;;;;;;;4.50;1.80;;;;;;;19.53;56.12;100081.68;107428;1292;21976;-82
2022/06/01 05:50:32;;;;;;;;;;;;;;;;;;;;;
2022/06/01 05:53:51;;;;;;;3.10;1.70;;;;;;;20.48;54.21;100092.30;107685;1288;22593;-80
2022/06/01 05:56:49;;;;;;;5.90;1.50;;;;;;;20.94;52.96;100088.97;108147;1285;22014;-82
2022/06/01 06:00:01;;;;;;;2.30;1.50;;;;;;;21.33;51.16;100094.73;108016;1285;21998;-81
2022/06/01 06:02:46;;;;;;;4.60;1.30;;;;;;;21.65;49.68;100102.42;108486;1279;21992;-82
2022/06/01 06:09:24;;;;;;;3.10;1.50;;;;;;;22.01;49.53;100113.94;108725;1279;21954;-82
2022/06/01 06:12:41;;;;;;;3.30;1.60;;;;;;;22.49;49.35;100115.52;108275;1285;22972;-84
2022/06/01 06:16:16;;;;;;;;;;;;;;;;;;;;;
2022/06/01 06:19:11;;;;;;;3.30;1.30;;;;;;;23.48;47.29;100116.20;107742;1290;22028;-83
2022/06/01 06:22:10;;;;;;;2.00;1.30;;;;;;;23.84;45.29;100114.96;107533;1289;22028;-84
2022/06/01 06:25:11;;;;;;;3.00;1.00;;;;;;;24.14;44.52;100121.14;108130;1282;23250;-84
2022/06/01 06:28:12;;;;;;;2.60;1.30;;;;;;;24.48;43.53;100127.04;107903;1288;22292;-83
2022/06/01 06:31:02;;;;;;;;;;;;;;;;;;;;;
2022/06/01 06:33:59;;;;;;;3.00;1.30;;;;;;;24.75;42.55;100118.40;107894;1285;21998;-83
2022/06/01 06:36:49;;;;;;;2.30;1.10;;;;;;;25.02;42.11;100123.64;107969;1286;22003;-84
2022/06/01 06:39:29;;;;;;;3.60;1.90;;;;;;;25.21;41.35;100128.00;107994;1285;22016;-82
2022/06/01 06:42:36;;;;;;;6.20;1.60;;;;;;;25.34;40.11;100128.16;107915;1284;22012;-82
2022/06/01 06:45:30;;;;;;;3.50;1.40;;;;;;;25.38;39.87;100124.48;107766;1285;22006;-85
2022/06/01 06:48:24;;;;;;;3.10;1.10;;;;;;;25.27;39.05;100122.80;107647;1289;22044;-83
2022/06/01 06:51:10;;;;;;;5.20;1.40;;;;;;;25.20;39.72;100121.68;107786;1282;23629;-82
2022/06/01 06:53:51;;;;;;;3.00;1.50;;;;;;;25.42;40.06;100123.98;108263;1282;22023;-82
2022/06/01 06:56:27;;;;;;;6.30;2.10;;;;;;;25.57;38.63;100123.27;108256;1282;22052;-83
2022/06/01 06:59:02;;;;;;;3.00;1.60;;;;;;;25.72;38.82;100123.30;108355;1282;23600;-82
2022/06/01 07:01:38;;;;;;;1.60;1.00;;;;;;;25.86;37.98;100127.85;107964;1285;22005;-82
2022/06/01 07:04:22;;;;;;;1.60;1.20;;;;;;;26.04;38.44;100125.52;107553;1288;22009;-82
2022/06/01 07:06:53;;;;;;;4.50;1.20;;;;;;;26.06;36.61;100128.17;107890;1285;22005;-80
2022/06/01 07:09:48;;;;;;;;;;;;;;;;;;;;;
2022/06/01 07:13:07;;;;;;;1.70;1.10;;;;;;;25.66;37.32;100131.81;107774;1288;22014;-80
2022/06/01 07:16:34;;;;;;;2.10;1.30;;;;;;;25.87;37.30;100132.06;107667;1288;22015;-80
2022/06/01 07:19:39;;;;;;;4.90;1.40;;;;;;;25.98;36.06;100137.72;107868;1282;23769;-80
2022/06/01 07:23:11;;;;;;;;;;;;;;;;;;;;;
2022/06/01 07:25:52;;;;;;;3.60;1.00;;;;;;;25.86;36.35;100131.48;108613;1279;24064;-80
2022/06/01 07:28:28;;;;;;;5.50;1.10;;;;;;;25.96;36.43;100129.45;108204;1279;21987;-80
2022/06/01 07:31:28;;;;;;;2.20;1.10;;;;;;;25.96;35.34;100127.22;108606;1279;21993;-80
2022/06/01 07:34:14;;;;;;;1.80;1.00;;;;;;;25.70;35.06;100125.69;108431;1279;22061;-81
2022/06/01 07:36:48;;;;;;;1.40;0.70;;;;;;;25.63;36.11;100124.34;108582;1279;22002;-81
2022/06/01 07:43:08;;;;;;;5.00;1.40;;;;;;;26.21;35.64;100126.21;108248;1279;23035;-83
2022/06/01 07:45:44;;;;;;;4.20;1.30;;;;;;;26.22;34.18;100128.48;108465;1279;22005;-82
2022/06/01 07:48:14;;;;;;;2.30;1.30;;;;;;;26.28;34.32;100135.44;108538;1279;21990;-84
2022/06/01 07:51:13;;;;;;;2.20;1.40;;;;;;;26.57;34.36;100133.92;108454;1279;21980;-83
2022/06/01 07:53:45;;;;;;;6.80;1.40;;;;;;;26.78;33.99;100139.06;108534;1279;21988;-82
2022/06/01 07:56:16;;;;;;;;;;;;;;;26.99;33.51;100138.33;108454;1279;21983;-83
2022/06/01 07:58:46;;;;;;;1.70;1.00;;;;;;;27.02;32.72;100140.31;108694;1276;22027;-84
2022/06/01 08:01:18;;;;;;;2.20;1.10;;;;;;;26.91;31.88;100143.05;108727;1273;22035;-80
2022/06/01 08:04:16;;;;;;;4.40;1.20;;;;;;;26.80;32.64;100145.51;108836;1272;22079;-82
2022/06/01 08:06:56;;;;;;;2.00;1.20;;;;;;;26.85;33.47;100144.77;108607;1279;22025;-85
2022/06/01 08:10:06;;;;;;;3.20;1.20;;;;;;;27.13;33.40;100147.04;108292;1282;23110;-84
2022/06/01 08:15:27;;;;;;;3.80;1.30;;;;;;;27.40;32.21;100151.60;108063;1281;22007;-77
2022/06/01 08:18:03;;;;;;;3.80;2.00;;;;;;;27.36;31.81;100154.73;108028;1282;22002;-78
2022/06/01 08:20:38;;;;;;;6.20;2.20;;;;;;;27.33;31.71;100161.75;107668;1288;22014;-79
2022/06/01 08:23:33;;;;;;;5.90;2.20;;;;;;;26.87;31.68;100164.60;107659;1286;21995;-75
2022/06/01 08:26:03;;;;;;;4.90;2.00;;;;;;;26.61;32.75;100167.13;107687;1283;23071;-75
2022/06/01 08:28:32;;;;;;;6.90;2.40;;;;;;;26.55;32.88;100169.17;107555;1285;22021;-76
2022/06/01 08:31:15;;;;;;;6.60;2.00;;;;;;;26.47;32.60;100172.00;107895;1285;23026;-80
2022/06/01 08:33:56;;;;;;;3.70;2.50;;;;;;;26.38;32.55;100173.11;107936;1285;22764;-81
2022/06/01 08:36:48;;;;;;;4.00;2.20;;;;;;;26.21;32.47;100180.09;108090;1283;22123;-80
2022/06/01 08:39:27;;;;;;;7.30;2.30;;;;;;;25.91;32.64;100185.58;107879;1284;23092;-78
2022/06/01 08:42:05;;;;;;;6.10;2.40;;;;;;;25.61;33.24;100186.13;107905;1285;22015;-78
2022/06/01 08:44:51;;;;;;;8.80;3.50;;;;;;;25.49;33.76;100190.35;107521;1285;22004;-77
2022/06/01 08:47:41;;;;;;;318.90;29.20;;;;;;;25.51;34.16;100192.63;107905;1282;23600;-80
2022/06/01 08:51:07;;;;;;;5.50;2.20;;;;;;;25.59;33.90;100199.12;108012;1285;23732;-79
2022/06/01 08:54:11;;;;;;;4.90;2.10;;;;;;;25.44;33.47;100204.30;107789;1285;21994;-80
2022/06/01 08:57:22;;;;;;;;;;;;;;;;;;;;;
2022/06/01 09:00:21;;;;;;;5.90;2.40;;;;;;;25.23;33.84;100196.12;107375;1291;22143;-75
2022/06/01 09:03:26;;;;;;;;;;;;;;;25.30;34.76;100194.41;107117;1291;23719;-77
2022/06/01 09:06:41;;;;;;;;;;;;;;;;;;;;;
2022/06/01 09:10:16;;;;;;;;;;;;;;;;;;;;;
2022/06/01 09:13:29;;;;;;;;;;;;;;;;;;;;;
2022/06/01 09:16:35;;;;;;;4.30;1.70;;;;;;;25.06;33.61;100203.95;106646;1297;22008;-77
2022/06/01 09:19:16;;;;;;;5.60;2.10;;;;;;;25.16;33.02;100203.99;107217;1291;22244;-77
2022/06/01 09:24:55;;;;;;;2.50;1.90;;;;;;;25.20;33.42;100213.04;107501;1286;22011;-78
2022/06/01 09:27:59;;;;;;;3.90;1.90;;;;;;;25.35;33.29;100209.21;107822;1282;23632;-78
2022/06/01 09:31:18;;;;;;;;;;;;;;;;;;;;;
2022/06/01 09:34:44;;;;;;;3.90;2.00;;;;;;;25.28;32.51;100216.95;108278;1279;21990;-77
2022/06/01 09:38:20;;;;;;;;;;;;;;;;;;;;;
2022/06/01 09:41:40;;;;;;;2.80;1.50;;;;;;;25.38;32.78;100224.09;107338;1288;22008;-78
2022/06/01 09:44:41;;;;;;;3.00;1.70;;;;;;;25.44;32.10;100223.17;107583;1288;22001;-78
2022/06/01 09:48:34;;;;;;;3.00;1.70;;;;;;;25.33;32.09;100224.20;107385;1285;22047;-78
2022/06/01 09:51:21;;;;;;;4.90;1.70;;;;;;;25.21;32.75;100220.52;107789;1285;22007;-77
2022/06/01 09:54:35;;;;;;;1.90;1.30;;;;;;;25.26;32.66;100225.70;107691;1285;23768;-76
2022/06/01 09:57:43;;;;;;;;;;;;;;;;;;;;;
2022/06/01 10:06:41;;;;;;;;;;;;;;;;;;;;;
2022/06/01 10:09:23;;;;;;;1.80;1.30;;;;;;;25.18;31.23;100230.23;107349;1290;22016;-77
2022/06/01 10:12:02;;;;;;;5.70;1.80;;;;;;;25.26;31.36;100235.92;106685;1294;23724;-77
2022/06/01 10:14:35;;;;;;;3.50;1.50;;;;;;;25.38;31.29;100238.32;106844;1294;25143;-76
2022/06/01 10:17:33;;;;;;;3.20;1.30;;;;;;;25.43;31.15;100243.85;106442;1293;23720;-76
2022/06/01 10:20:40;;;;;;;5.00;1.50;;;;;;;25.41;31.07;100238.98;106881;1292;22034;-76
2022/06/01 10:23:49;;;;;;;3.10;1.30;;;;;;;25.16;30.89;100233.52;106347;1299;23102;-76
2022/06/01 10:26:37;;;;;;;3.30;1.30;;;;;;;24.89;31.57;100235.47;106365;1298;22027;-76
2022/06/01 10:29:27;;;;;;;3.80;1.30;;;;;;;24.65;31.19;100238.56;106350;1297;23106;-76
2022/06/01 10:32:32;;;;;;;3.40;1.40;;;;;;;24.39;31.54;100235.30;107340;1289;23725;-75
2022/06/01 10:35:45;;;;;;;;;;;;;;;;;;;;;
2022/06/01 10:39:17;;;;;;;;;;;;;;;;;;;;;
2022/06/01 10:46:13;;;;;;;;;;;;;;;;;;;;;
2022/06/01 10:49:29;;;;;;;4.60;2.00;;;;;;;23.36;32.94;100244.42;108035;1282;22824;-78
2022/06/01 10:52:56;;;;;;;9.30;2.90;;;;;;;23.28;33.30;100243.59;108133;1282;22066;-78
2022/06/01 10:55:37;;;;;;;5.20;2.60;;;;;;;23.18;33.46;100243.64;107956;1284;23833;-77
2022/06/01 10:58:28;;;;;;;5.60;3.50;;;;;;;23.01;33.55;100245.39;107824;1285;22000;-78
2022/06/01 11:01:31;;;;;;;3.90;3.40;;;;;;;22.76;33.64;100244.70;107794;1285;23085;-77
2022/06/01 11:05:13;;;;;;;4.10;3.40;;;;;;;22.52;34.21;100245.58;107140;1291;22093;-79
2022/06/01 11:09:09;;;;;;;3.90;3.50;;;;;;;22.27;34.71;100249.60;106289;1299;23103;-78
2022/06/01 11:12:01;;;;;;;5.30;4.40;;;;;;;22.12;35.27;100249.56;105712;1300;22027;-77
2022/06/01 11:15:39;;;;;;;5.00;4.30;;;;;;;21.98;35.83;100248.49;106322;1299;23746;-77
2022/06/01 11:18:56;;;;;;;4.40;4.00;;;;;;;21.95;36.10;100255.98;105832;1305;22033;-76
2022/06/01 11:22:16;;;;;;;5.10;4.00;;;;;;;21.90;36.02;100250.80;105668;1308;22177;-77
2022/06/01 11:25:11;;;;;;;4.80;4.30;;;;;;;21.84;36.50;100258.70;105833;1306;22252;-78
2022/06/01 11:28:32;;;;;;;4.90;4.40;;;;;;;21.81;36.91;100255.50;106205;1299;23726;-74
2022/06/01 11:31:25;;;;;;;7.90;5.60;;;;;;;21.77;36.90;100258.55;106904;1291;22020;-76
2022/06/01 11:34:29;;;;;;;;;;;;;;;;;;;;;
2022/06/01 11:37:35;;;;;;;4.20;3.20;;;;;;;21.78;36.80;100253.77;107196;1289;22460;-77
2022/06/01 11:41:03;;;;;;;9.50;4.30;;;;;;;21.76;36.84;100256.44;107367;1289;22796;-76
2022/06/01 11:44:03;;;;;;;;;;;;;;;21.77;36.58;100259.29;107545;1284;21988;-76
2022/06/01 11:46:55;;;;;;;6.70;3.10;;;;;;;21.70;36.81;100256.71;108048;1282;23708;-78
2022/06/01 11:50:10;;;;;;;4.90;3.40;;;;;;;21.76;37.18;100263.43;108114;1283;22027;-77
2022/06/01 11:53:11;;;;;;;;;;;;;;;;;;;;;
2022/06/01 11:56:26;;;;;;;4.40;3.50;;;;;;;21.86;36.94;100249.71;108061;1279;21988;-75
2022/06/01 11:59:53;;;;;;;3.60;2.60;;;;;;;21.93;36.84;100246.42;108329;1279;23106;-75
2022/06/01 12:02:48;;;;;;;3.30;1.90;;;;;;;22.01;36.27;100248.39;108151;1279;22025;-77
2022/06/01 12:05:40;;;;;;;4.60;1.90;;;;;;;22.10;35.75;100253.20;108129;1279;22068;-75
2022/06/01 12:08:36;;;;;;;2.70;2.10;;;;;;;22.18;35.38;100252.65;108144;1279;21992;-76
2022/06/01 12:11:53;;;;;;;;;;;;;;;;;;;;;
2022/06/01 12:15:05;;;;;;;3.80;2.90;;;;;;;22.28;35.39;100252.80;108824;1273;21992;-77
2022/06/01 12:18:29;;;;;;;3.50;2.70;;;;;;;22.29;35.28;100249.48;107619;1286;23900;-78
2022/06/01 12:21:28;;;;;;;9.90;3.00;;;;;;;22.31;35.09;100248.70;107307;1289;22971;-76
2022/06/01 12:30:24;;;;;;;2.40;1.80;;;;;;;22.39;34.46;100245.73;106754;1296;23719;-76
2022/06/01 12:33:21;;;;;;;2.80;2.20;;;;;;;22.37;34.37;100244.30;106245;1302;23177;-76
2022/06/01 12:36:05;;;;;;;7.40;2.50;;;;;;;22.34;34.48;100241.15;106246;1299;22031;-76
2022/06/01 12:38:47;;;;;;;4.00;1.90;;;;;;;22.38;34.53;100247.77;106003;1302;23112;-75
2022/06/01 12:41:38;;;;;;;3.80;1.70;;;;;;;22.36;34.03;100245.73;105999;1301;23661;-76
2022/06/01 12:45:11;;;;;;;2.40;1.50;;;;;;;22.27;33.68;100244.28;105927;1302;22073;-77
2022/06/01 12:48:27;;;;;;;4.10;2.10;;;;;;;22.20;33.67;100240.31;106178;1299;23890;-77
2022/06/01 12:51:53;;;;;;;4.40;1.90;;;;;;;22.15;33.35;100237.52;106120;1302;22029;-76
2022/06/01 12:54:58;;;;;;;4.30;1.80;;;;;;;22.23;33.41;100235.11;107127;1291;546979;-76
2022/06/01 12:57:59;;;;;;;4.10;1.90;;;;;;;22.27;33.46;100238.27;109369;1266;23617;-76
2022/06/01 13:00:54;;;;;;;3.50;1.50;;;;;;;22.25;33.07;100240.60;108868;1270;22584;-76
2022/06/01 13:03:35;;;;;;;3.20;1.40;;;;;;;22.18;32.76;100236.19;108763;1271;22063;-76
2022/06/01 13:06:22;;;;;;;;;;;;;;;;;;;;;
2022/06/01 13:09:16;;;;;;;2.20;1.30;;;;;;;22.17;32.81;100230.72;108664;1267;380617;-76
2022/06/01 13:12:37;;;;;;;3.10;1.50;;;;;;;22.11;32.89;100225.09;109324;1264;21975;-77
2022/06/01 13:15:25;;;;;;;3.80;1.90;;;;;;;22.13;33.32;100225.16;109325;1263;22441;-76
2022/06/01 13:18:18;;;;;;;2.60;1.80;;;;;;;22.17;33.50;100227.18;109474;1262;23205;-78
2022/06/01 13:21:24;;;;;;;4.60;2.10;;;;;;;22.16;33.22;100223.45;109981;1260;21988;-78
2022/06/01 13:25:22;;;;;;;3.10;1.50;;;;;;;22.08;33.18;100222.30;109245;1267;22688;-77
2022/06/01 13:28:49;;;;;;;4.20;2.00;;;;;;;22.05;33.03;100217.83;109262;1279;22010;-76
2022/06/01 13:32:07;;;;;;;;;;;;;;;;;;;;;
2022/06/01 13:35:47;;;;;;;;;;;;;;;;;;;;;
2022/06/01 13:39:09;;;;;;;2.40;1.50;;;;;;;22.03;32.38;100223.08;108936;1285;21996;-77
2022/06/01 13:43:14;;;;;;;2.70;1.10;;;;;;;22.01;32.29;100217.07;108916;1279;23631;-76
2022/06/01 13:46:36;;;;;;;2.60;1.30;;;;;;;22.01;32.64;100210.28;109445;1273;21987;-76
2022/06/01 13:50:02;;;;;;;3.00;1.10;;;;;;;22.06;32.80;100215.05;110148;1263;22093;-78
2022/06/01 13:53:22;;;;;;;4.70;1.60;;;;;;;22.11;32.36;100215.33;110095;1264;22153;-76
2022/06/01 13:57:13;;;;;;;2.20;1.10;;;;;;;22.15;32.30;100220.48;109925;1264;21993;-76
2022/06/01 14:04:01;;;;;;;2.30;0.90;;;;;;;22.33;31.60;100205.29;109804;1263;21984;-77
2022/06/01 14:07:15;;;;;;;3.90;1.70;;;;;;;22.44;31.59;100203.55;109264;1267;21975;-77
2022/06/01 14:10:16;;;;;;;;;;;;;;;;;;;;;
2022/06/01 14:12:56;;;;;;;4.10;1.10;;;;;;;22.56;31.09;100206.06;108584;1270;21989;-78
2022/06/01 14:15:41;;;;;;;2.20;1.20;;;;;;;22.52;30.73;100206.29;108799;1273;21977;-77
2022/06/01 14:18:33;;;;;;;2.50;1.00;;;;;;;22.47;30.54;100207.14;108727;1270;21984;-78
2022/06/01 14:21:11;;;;;;;3.90;1.10;;;;;;;22.42;30.54;100214.55;108708;1273;23901;-77
2022/06/01 14:23:53;;;;;;;4.40;1.10;;;;;;;22.41;30.55;100212.86;108732;1270;23056;-78
2022/06/01 14:29:26;;;;;;;2.80;1.10;;;;;;;22.41;30.38;100223.53;108967;1270;21992;-78
2022/06/01 14:32:14;;;;;;;;;;;;;;;;;;;;;
2022/06/01 14:35:05;;;;;;;2.30;1.00;;;;;;;22.44;30.39;100219.98;108798;1270;23036;-79
2022/06/01 14:37:50;;;;;;;2.90;0.90;;;;;;;22.42;30.46;100216.60;108759;1270;23683;-77
2022/06/01 14:40:23;;;;;;;4.50;1.30;;;;;;;22.40;30.68;100216.41;108876;1267;22718;-79
2022/06/01 14:43:04;;;;;;;3.10;1.30;;;;;;;22.40;30.82;100218.95;109012;1267;22043;-81
2022/06/01 14:45:38;;;;;;;1.60;1.00;;;;;;;22.40;30.94;100217.88;109041;1267;21992;-77
2022/06/01 14:48:15;;;;;;;2.70;0.90;;;;;;;22.36;30.82;100216.59;109244;1264;22830;-77
2022/06/01 14:50:47;;;;;;;1.70;1.00;;;;;;;22.31;30.67;100222.05;109825;1256;22030;-77
2022/06/01 14:53:42;;;;;;;2.40;1.00;;;;;;;22.27;30.88;100220.43;110496;1253;23023;-77
2022/06/01 14:56:28;;;;;;;1.30;0.90;;;;;;;22.27;30.78;100218.13;110708;1253;23693;-78
2022/06/01 14:59:11;;;;;;;;;;;;;;;;;;;;;
2022/06/01 15:02:11;;;;;;;2.60;1.10;;;;;;;22.25;30.80;100222.62;110693;1253;21969;-77
2022/06/01 15:04:50;;;;;;;2.20;1.10;;;;;;;22.25;31.00;100217.83;110638;1253;22906;-78
2022/06/01 15:07:32;;;;;;;2.50;1.20;;;;;;;22.25;31.01;100219.66;110758;1253;23677;-77
2022/06/01 15:10:36;;;;;;;2.90;1.00;;;;;;;22.23;30.96;100222.73;110626;1253;22206;-77
2022/06/01 15:13:35;;;;;;;3.80;1.80;;;;;;;22.19;30.99;100225.81;110736;1253;23586;-77
2022/06/01 15:16:26;;;;;;;2.20;1.50;;;;;;;22.16;31.04;100228.63;110787;1253;23749;-77
2022/06/01 15:18:59;;;;;;;2.80;1.50;;;;;;;22.16;31.18;100233.21;110627;1253;22040;-77
2022/06/01 15:21:28;;;;;;;2.70;1.70;;;;;;;22.17;31.24;100231.49;110816;1252;21962;-78
2022/06/01 15:24:21;;;;;;;4.10;1.20;;;;;;;22.20;31.47;100231.31;110253;1257;22036;-79
2022/06/01 15:27:06;;;;;;;2.20;1.20;;;;;;;22.19;31.25;100233.55;110580;1258;22679;-80
2022/06/01 15:39:42;;;;;;;4.70;1.40;;;;;;;22.09;32.03;100228.02;109512;1264;23016;-77
2022/06/01 15:42:49;;;;;;;;;;;;;;;;;;;;;
2022/06/01 15:45:54;;;;;;;1.60;1.20;;;;;;;22.08;31.83;100223.91;109935;1260;21978;-78
2022/06/01 15:48:26;;;;;;;4.40;1.80;;;;;;;22.06;31.98;100219.78;110452;1253;23067;-79
2022/06/01 15:51:28;;;;;;;5.10;1.60;;;;;;;22.05;32.07;100222.73;110562;1253;23679;-78
2022/06/01 15:54:34;;;;;;;4.40;3.60;;;;;;;22.05;32.34;100223.91;110717;1250;23657;-78
2022/06/01 15:57:28;;;;;;;;;;;;;;;22.04;32.62;100215.88;110788;1250;21952;-77
2022/06/01 15:59:57;;;;;;;3.40;1.70;;;;;;;21.96;32.77;100211.02;110926;1250;23660;-78
2022/06/01 16:02:31;;;;;;;2.60;1.50;;;;;;;21.96;33.01;100208.45;110792;1250;22031;-77
2022/06/01 16:05:12;;;;;;;2.50;1.30;;;;;;;22.02;33.22;100203.64;110738;1250;23049;-78
2022/06/01 16:08:03;;;;;;;3.20;1.60;;;;;;;22.08;33.61;100203.48;110452;1254;22033;-78
2022/06/01 16:10:49;;;;;;;2.00;1.20;;;;;;;22.04;33.25;100207.55;110329;1255;22742;-78
2022/06/01 16:13:39;;;;;;;5.90;1.60;;;;;;;21.94;33.29;100210.79;109368;1261;21987;-78
2022/06/01 16:16:13;;;;;;;7.40;2.70;;;;;;;21.80;33.48;100209.27;109398;1261;22044;-75
2022/06/01 16:18:44;;;;;;;3.30;2.40;;;;;;;21.72;34.50;100211.96;109842;1261;23197;-75
2022/06/01 16:21:15;;;;;;;2.50;1.70;;;;;;;21.64;34.22;100214.89;109219;1264;22421;-75
2022/06/01 16:23:45;;;;;;;5.80;2.30;;;;;;;21.59;34.50;100214.55;109631;1262;23775;-75
2022/06/01 16:26:15;;;;;;;4.60;1.50;;;;;;;21.59;35.06;100216.63;109646;1261;23427;-75
2022/06/01 16:28:45;;;;;;;2.80;1.40;;;;;;;21.61;35.26;100216.94;109496;1261;23602;-77
2022/06/01 16:31:16;;;;;;;3.60;1.30;;;;;;;21.60;34.78;100217.84;109187;1264;21981;-77
2022/06/01 16:33:46;;;;;;;5.00;1.50;;;;;;;21.57;34.39;100221.34;109775;1258;24279;-78
2022/06/01 16:36:29;;;;;;;1.70;1.40;;;;;;;21.55;34.00;100221.20;109327;1264;21978;-78
2022/06/01 16:39:08;;;;;;;4.30;1.40;;;;;;;21.47;33.82;100218.21;109624;1262;23612;-77
2022/06/01 16:41:58;;;;;;;1.50;1.30;;;;;;;21.39;33.80;100216.99;109423;1263;22017;-78
2022/06/01 16:44:28;;;;;;;2.70;1.30;;;;;;;21.36;33.82;100219.71;109300;1263;22094;-78
2022/06/01 16:46:57;;;;;;;2.30;1.20;;;;;;;21.33;33.97;100214.88;109510;1263;23112;-78
2022/06/01 16:49:27;;;;;;;2.90;1.50;;;;;;;21.32;34.10;100217.51;109473;1257;21970;-78
2022/06/01 16:51:57;;;;;;;3.80;1.70;;;;;;;21.32;34.06;100214.42;110411;1257;22173;-78
2022/06/01 16:54:26;;;;;;;5.20;1.40;;;;;;;21.30;33.83;100212.77;110309;1250;21961;-78
2022/06/01 16:56:56;;;;;;;6.60;1.60;;;;;;;21.28;33.74;100209.14;110721;1250;21967;-78
2022/06/01 16:59:34;;;;;;;2.80;1.30;;;;;;;21.25;33.48;100209.08;110832;1250;21956;-78
2022/06/01 17:02:07;;;;;;;2.40;1.50;;;;;;;21.23;33.56;100208.62;110637;1250;21953;-78
2022/06/01 17:04:37;;;;;;;1.60;1.20;;;;;;;21.27;33.83;100209.29;110615;1250;21997;-77
2022/06/01 17:07:12;;;;;;;2.60;1.20;;;;;;;21.32;33.74;100212.02;110920;1251;21950;-78
2022/06/01 17:09:43;;;;;;;3.40;1.00;;;;;;;21.39;33.76;100213.54;110487;1256;21962;-78
2022/06/01 17:12:15;;;;;;;2.20;1.50;;;;;;;21.47;33.65;100212.94;110204;1256;22059;-78
2022/06/01 17:14:44;;;;;;;6.30;1.80;;;;;;;21.46;33.48;100214.11;110442;1256;22013;-79